Terminal Aerodrome Forecast
Issued by NWS

Home | Current Version | Previous Version | Text Only | Print | Product List | Glossary Off
Versions: 1 2 3 4 5 6 7 8 9 10 11 12 13 14 15 16 17 18 19 20 21 22 23 24 25 26 27 28

000
FTUS43 KGRB 191703 AAC
TAFATW
TAF AMD
KATW 191703Z 1917/2012 26007KT P6SM VCSH BKN010
      TEMPO 1917/1921 6SM -SHRA
     FM192100 28008KT P6SM VCSH SCT015 BKN025
     FM200400 30003KT 3SM BR SCT008 BKN050
     FM200700 00000KT 1SM BR BKN008=

USA.gov is the U.S. government's official web portal to all federal, state and local government web resources and services.